sensor_id;sensor_type;location;lat;lon;timestamp;P1;durP1;ratioP1;P2;durP2;ratioP2
8476;SDS011;4275;42.854;23.222;2023-06-14T00:05:14;2.78;;;2.78;;
8476;SDS011;4275;42.854;23.222;2023-06-14T00:07:41;2.70;;;2.70;;
8476;SDS011;4275;42.854;23.222;2023-06-14T00:10:09;2.40;;;2.40;;
8476;SDS011;4275;42.854;23.222;2023-06-14T00:12:38;2.60;;;2.60;;
8476;SDS011;4275;42.854;23.222;2023-06-14T00:15:06;2.67;;;2.67;;
8476;SDS011;4275;42.854;23.222;2023-06-14T00:17:34;2.88;;;2.88;;
8476;SDS011;4275;42.854;23.222;2023-06-14T00:20:02;2.90;;;2.90;;
8476;SDS011;4275;42.854;23.222;2023-06-14T00:22:34;3.05;;;3.05;;
8476;SDS011;4275;42.854;23.222;2023-06-14T00:25:02;3.60;;;3.50;;
8476;SDS011;4275;42.854;23.222;2023-06-14T00:27:30;3.28;;;3.28;;
8476;SDS011;4275;42.854;23.222;2023-06-14T00:29:57;3.80;;;3.70;;
8476;SDS011;4275;42.854;23.222;2023-06-14T00:32:24;4.10;;;4.00;;
8476;SDS011;4275;42.854;23.222;2023-06-14T00:41:16;3.20;;;3.20;;
8476;SDS011;4275;42.854;23.222;2023-06-14T00:43:43;3.00;;;3.00;;
8476;SDS011;4275;42.854;23.222;2023-06-14T00:46:10;3.83;;;3.72;;
8476;SDS011;4275;42.854;23.222;2023-06-14T00:51:51;3.30;;;3.30;;
8476;SDS011;4275;42.854;23.222;2023-06-14T00:54:20;2.88;;;2.88;;
8476;SDS011;4275;42.854;23.222;2023-06-14T00:56:47;2.75;;;2.75;;
8476;SDS011;4275;42.854;23.222;2023-06-14T00:59:14;2.92;;;2.92;;
8476;SDS011;4275;42.854;23.222;2023-06-14T01:01:41;2.70;;;2.70;;
8476;SDS011;4275;42.854;23.222;2023-06-14T01:04:09;2.80;;;2.80;;
8476;SDS011;4275;42.854;23.222;2023-06-14T01:06:38;3.10;;;3.10;;
8476;SDS011;4275;42.854;23.222;2023-06-14T01:09:14;2.80;;;2.80;;
8476;SDS011;4275;42.854;23.222;2023-06-14T01:11:49;2.80;;;2.80;;
8476;SDS011;4275;42.854;23.222;2023-06-14T01:17:18;3.63;;;3.53;;
8476;SDS011;4275;42.854;23.222;2023-06-14T01:25:47;3.70;;;3.60;;
8476;SDS011;4275;42.854;23.222;2023-06-14T01:28:18;4.07;;;3.97;;
8476;SDS011;4275;42.854;23.222;2023-06-14T01:30:46;3.50;;;3.40;;
8476;SDS011;4275;42.854;23.222;2023-06-14T01:33:17;3.90;;;3.80;;
8476;SDS011;4275;42.854;23.222;2023-06-14T01:35:47;3.80;;;3.70;;
8476;SDS011;4275;42.854;23.222;2023-06-14T01:38:15;3.83;;;3.72;;
8476;SDS011;4275;42.854;23.222;2023-06-14T01:40:44;3.95;;;3.85;;
8476;SDS011;4275;42.854;23.222;2023-06-14T01:46:15;3.60;;;3.50;;
8476;SDS011;4275;42.854;23.222;2023-06-14T01:48:43;4.20;;;4.10;;
8476;SDS011;4275;42.854;23.222;2023-06-14T01:51:10;4.55;;;4.45;;
8476;SDS011;4275;42.854;23.222;2023-06-14T02:00:17;5.20;;;5.10;;
8476;SDS011;4275;42.854;23.222;2023-06-14T02:02:45;5.40;;;5.30;;
8476;SDS011;4275;42.854;23.222;2023-06-14T02:08:32;4.10;;;4.00;;
8476;SDS011;4275;42.854;23.222;2023-06-14T02:10:59;3.88;;;3.78;;
8476;SDS011;4275;42.854;23.222;2023-06-14T02:13:26;3.00;;;3.00;;
8476;SDS011;4275;42.854;23.222;2023-06-14T02:15:55;2.80;;;2.80;;
8476;SDS011;4275;42.854;23.222;2023-06-14T02:18:22;2.80;;;2.80;;
8476;SDS011;4275;42.854;23.222;2023-06-14T02:20:50;2.90;;;2.90;;
8476;SDS011;4275;42.854;23.222;2023-06-14T02:23:17;2.97;;;2.97;;
8476;SDS011;4275;42.854;23.222;2023-06-14T02:25:44;3.00;;;3.00;;
8476;SDS011;4275;42.854;23.222;2023-06-14T02:28:11;3.15;;;3.15;;
8476;SDS011;4275;42.854;23.222;2023-06-14T02:30:38;3.10;;;3.10;;
8476;SDS011;4275;42.854;23.222;2023-06-14T02:33:07;3.13;;;3.13;;
8476;SDS011;4275;42.854;23.222;2023-06-14T02:35:37;2.88;;;2.88;;
8476;SDS011;4275;42.854;23.222;2023-06-14T02:38:04;2.90;;;2.90;;
8476;SDS011;4275;42.854;23.222;2023-06-14T02:40:31;2.90;;;2.90;;
8476;SDS011;4275;42.854;23.222;2023-06-14T02:46:20;2.90;;;2.90;;
8476;SDS011;4275;42.854;23.222;2023-06-14T02:48:48;2.83;;;2.83;;
8476;SDS011;4275;42.854;23.222;2023-06-14T02:51:15;2.90;;;2.90;;
8476;SDS011;4275;42.854;23.222;2023-06-14T02:53:42;2.70;;;2.70;;
8476;SDS011;4275;42.854;23.222;2023-06-14T02:59:11;3.00;;;3.00;;
8476;SDS011;4275;42.854;23.222;2023-06-14T03:01:39;3.00;;;3.00;;
8476;SDS011;4275;42.854;23.222;2023-06-14T03:04:08;3.10;;;3.10;;
8476;SDS011;4275;42.854;23.222;2023-06-14T03:06:35;3.78;;;3.67;;
8476;SDS011;4275;42.854;23.222;2023-06-14T03:09:02;4.13;;;4.03;;
8476;SDS011;4275;42.854;23.222;2023-06-14T03:11:31;4.40;;;4.30;;
8476;SDS011;4275;42.854;23.222;2023-06-14T03:13:58;4.80;;;4.70;;
8476;SDS011;4275;42.854;23.222;2023-06-14T03:16:32;4.38;;;4.28;;
8476;SDS011;4275;42.854;23.222;2023-06-14T03:18:59;5.10;;;5.00;;
8476;SDS011;4275;42.854;23.222;2023-06-14T03:24:33;5.45;;;5.35;;
8476;SDS011;4275;42.854;23.222;2023-06-14T03:30:15;3.90;;;3.80;;
8476;SDS011;4275;42.854;23.222;2023-06-14T03:32:42;3.60;;;3.50;;
8476;SDS011;4275;42.854;23.222;2023-06-14T03:35:09;3.20;;;3.20;;
8476;SDS011;4275;42.854;23.222;2023-06-14T03:37:43;3.80;;;3.70;;
8476;SDS011;4275;42.854;23.222;2023-06-14T03:40:11;3.10;;;3.10;;
8476;SDS011;4275;42.854;23.222;2023-06-14T03:42:39;3.10;;;3.10;;
8476;SDS011;4275;42.854;23.222;2023-06-14T03:45:07;3.30;;;3.30;;
8476;SDS011;4275;42.854;23.222;2023-06-14T03:47:34;3.17;;;3.17;;
8476;SDS011;4275;42.854;23.222;2023-06-14T03:50:01;4.10;;;4.00;;
8476;SDS011;4275;42.854;23.222;2023-06-14T03:52:29;3.80;;;3.70;;
8476;SDS011;4275;42.854;23.222;2023-06-14T03:54:57;4.40;;;4.30;;
8476;SDS011;4275;42.854;23.222;2023-06-14T03:57:25;4.25;;;4.15;;
8476;SDS011;4275;42.854;23.222;2023-06-14T03:59:52;3.50;;;3.40;;
8476;SDS011;4275;42.854;23.222;2023-06-14T04:02:19;3.10;;;3.10;;
8476;SDS011;4275;42.854;23.222;2023-06-14T04:04:47;3.30;;;3.30;;
8476;SDS011;4275;42.854;23.222;2023-06-14T04:07:14;4.40;;;4.30;;
8476;SDS011;4275;42.854;23.222;2023-06-14T04:09:44;9.48;;;9.18;;
8476;SDS011;4275;42.854;23.222;2023-06-14T04:12:13;14.30;;;13.80;;
8476;SDS011;4275;42.854;23.222;2023-06-14T04:14:40;14.35;;;13.85;;
8476;SDS011;4275;42.854;23.222;2023-06-14T04:17:07;16.23;;;15.63;;
8476;SDS011;4275;42.854;23.222;2023-06-14T04:19:34;17.40;;;16.70;;
8476;SDS011;4275;42.854;23.222;2023-06-14T04:22:01;15.48;;;14.98;;
8476;SDS011;4275;42.854;23.222;2023-06-14T04:24:29;12.60;;;12.20;;
8476;SDS011;4275;42.854;23.222;2023-06-14T04:26:57;10.98;;;10.68;;
8476;SDS011;4275;42.854;23.222;2023-06-14T04:29:27;9.85;;;9.55;;
8476;SDS011;4275;42.854;23.222;2023-06-14T04:31:54;9.50;;;9.20;;
8476;SDS011;4275;42.854;23.222;2023-06-14T04:34:24;8.52;;;8.32;;
8476;SDS011;4275;42.854;23.222;2023-06-14T04:36:54;14.30;;;13.90;;
8476;SDS011;4275;42.854;23.222;2023-06-14T04:39:22;8.65;;;8.45;;
8476;SDS011;4275;42.854;23.222;2023-06-14T04:41:50;8.40;;;8.20;;
8476;SDS011;4275;42.854;23.222;2023-06-14T04:44:22;7.90;;;7.70;;
8476;SDS011;4275;42.854;23.222;2023-06-14T04:46:56;8.25;;;8.05;;
8476;SDS011;4275;42.854;23.222;2023-06-14T04:49:24;7.85;;;7.65;;
8476;SDS011;4275;42.854;23.222;2023-06-14T04:51:52;8.18;;;7.97;;
8476;SDS011;4275;42.854;23.222;2023-06-14T04:54:22;8.70;;;8.50;;
8476;SDS011;4275;42.854;23.222;2023-06-14T04:56:49;14.63;;;14.13;;
8476;SDS011;4275;42.854;23.222;2023-06-14T04:59:17;8.90;;;8.70;;
8476;SDS011;4275;42.854;23.222;2023-06-14T05:01:44;9.35;;;9.05;;
8476;SDS011;4275;42.854;23.222;2023-06-14T05:04:15;10.00;;;9.70;;
8476;SDS011;4275;42.854;23.222;2023-06-14T05:06:42;11.88;;;11.48;;
8476;SDS011;4275;42.854;23.222;2023-06-14T05:09:10;11.85;;;11.45;;
8476;SDS011;4275;42.854;23.222;2023-06-14T05:11:37;13.00;;;12.60;;
8476;SDS011;4275;42.854;23.222;2023-06-14T05:14:05;13.23;;;12.82;;
8476;SDS011;4275;42.854;23.222;2023-06-14T05:16:32;13.07;;;12.68;;
8476;SDS011;4275;42.854;23.222;2023-06-14T05:18:59;13.50;;;13.00;;
8476;SDS011;4275;42.854;23.222;2023-06-14T05:21:27;14.35;;;13.85;;
8476;SDS011;4275;42.854;23.222;2023-06-14T05:23:54;15.07;;;14.48;;
8476;SDS011;4275;42.854;23.222;2023-06-14T05:26:22;17.00;;;16.20;;
8476;SDS011;4275;42.854;23.222;2023-06-14T05:28:53;18.10;;;17.30;;
8476;SDS011;4275;42.854;23.222;2023-06-14T05:31:21;15.80;;;15.20;;
8476;SDS011;4275;42.854;23.222;2023-06-14T05:33:49;16.90;;;16.20;;
8476;SDS011;4275;42.854;23.222;2023-06-14T05:36:16;16.40;;;15.80;;
8476;SDS011;4275;42.854;23.222;2023-06-14T05:38:44;14.35;;;13.85;;
8476;SDS011;4275;42.854;23.222;2023-06-14T05:41:12;20.10;;;19.30;;
8476;SDS011;4275;42.854;23.222;2023-06-14T05:43:39;14.27;;;13.77;;
8476;SDS011;4275;42.854;23.222;2023-06-14T05:46:06;16.30;;;15.60;;
8476;SDS011;4275;42.854;23.222;2023-06-14T05:48:33;14.70;;;14.10;;
8476;SDS011;4275;42.854;23.222;2023-06-14T05:51:00;16.00;;;15.40;;
8476;SDS011;4275;42.854;23.222;2023-06-14T05:53:27;18.73;;;17.83;;
8476;SDS011;4275;42.854;23.222;2023-06-14T05:55:55;18.45;;;17.55;;
8476;SDS011;4275;42.854;23.222;2023-06-14T05:58:22;18.15;;;17.25;;
8476;SDS011;4275;42.854;23.222;2023-06-14T06:00:49;18.95;;;18.05;;
8476;SDS011;4275;42.854;23.222;2023-06-14T06:03:18;17.00;;;16.30;;
8476;SDS011;4275;42.854;23.222;2023-06-14T06:05:46;15.93;;;15.23;;
8476;SDS011;4275;42.854;23.222;2023-06-14T06:08:13;16.33;;;15.63;;
8476;SDS011;4275;42.854;23.222;2023-06-14T06:10:42;16.50;;;15.70;;
8476;SDS011;4275;42.854;23.222;2023-06-14T06:13:10;18.33;;;17.42;;
8476;SDS011;4275;42.854;23.222;2023-06-14T06:15:37;19.42;;;18.42;;
8476;SDS011;4275;42.854;23.222;2023-06-14T06:18:04;19.10;;;18.20;;
8476;SDS011;4275;42.854;23.222;2023-06-14T06:20:31;18.20;;;17.30;;
8476;SDS011;4275;42.854;23.222;2023-06-14T06:22:58;17.00;;;16.20;;
8476;SDS011;4275;42.854;23.222;2023-06-14T06:25:26;17.42;;;16.52;;
8476;SDS011;4275;42.854;23.222;2023-06-14T06:27:53;17.40;;;16.60;;
8476;SDS011;4275;42.854;23.222;2023-06-14T06:30:22;18.00;;;17.20;;
8476;SDS011;4275;42.854;23.222;2023-06-14T06:32:49;17.73;;;16.83;;
8476;SDS011;4275;42.854;23.222;2023-06-14T06:35:17;17.35;;;16.55;;
8476;SDS011;4275;42.854;23.222;2023-06-14T06:37:44;16.67;;;15.88;;
8476;SDS011;4275;42.854;23.222;2023-06-14T06:40:11;17.48;;;16.50;;
8476;SDS011;4275;42.854;23.222;2023-06-14T06:42:38;19.00;;;18.00;;
8476;SDS011;4275;42.854;23.222;2023-06-14T06:45:05;18.80;;;17.80;;
8476;SDS011;4275;42.854;23.222;2023-06-14T06:47:34;18.92;;;17.83;;
8476;SDS011;4275;42.854;23.222;2023-06-14T06:50:01;18.65;;;17.65;;
8476;SDS011;4275;42.854;23.222;2023-06-14T07:09:49;19.52;;;18.15;;
8476;SDS011;4275;42.854;23.222;2023-06-14T07:12:16;22.23;;;20.92;;
8476;SDS011;4275;42.854;23.222;2023-06-14T07:14:43;22.08;;;20.67;;
8476;SDS011;4275;42.854;23.222;2023-06-14T07:17:10;22.90;;;21.63;;
8476;SDS011;4275;42.854;23.222;2023-06-14T07:19:37;20.70;;;19.00;;
8476;SDS011;4275;42.854;23.222;2023-06-14T07:22:04;19.30;;;18.20;;
8476;SDS011;4275;42.854;23.222;2023-06-14T07:24:31;17.25;;;16.15;;
8476;SDS011;4275;42.854;23.222;2023-06-14T07:27:01;19.08;;;17.67;;
8476;SDS011;4275;42.854;23.222;2023-06-14T07:29:29;18.20;;;16.90;;
8476;SDS011;4275;42.854;23.222;2023-06-14T07:31:56;21.83;;;19.92;;
8476;SDS011;4275;42.854;23.222;2023-06-14T07:34:23;19.80;;;18.30;;
8476;SDS011;4275;42.854;23.222;2023-06-14T07:36:50;19.38;;;17.95;;
8476;SDS011;4275;42.854;23.222;2023-06-14T07:39:17;20.20;;;18.90;;
8476;SDS011;4275;42.854;23.222;2023-06-14T07:41:44;20.23;;;18.73;;
8476;SDS011;4275;42.854;23.222;2023-06-14T07:44:13;23.60;;;21.60;;
8476;SDS011;4275;42.854;23.222;2023-06-14T07:46:41;22.30;;;20.60;;
8476;SDS011;4275;42.854;23.222;2023-06-14T07:49:08;23.05;;;21.25;;
8476;SDS011;4275;42.854;23.222;2023-06-14T07:51:35;20.27;;;18.67;;
8476;SDS011;4275;42.854;23.222;2023-06-14T07:54:03;20.77;;;19.17;;
8476;SDS011;4275;42.854;23.222;2023-06-14T07:56:32;21.05;;;19.45;;
8476;SDS011;4275;42.854;23.222;2023-06-14T07:58:59;21.00;;;19.60;;
8476;SDS011;4275;42.854;23.222;2023-06-14T08:01:27;20.58;;;18.98;;
8476;SDS011;4275;42.854;23.222;2023-06-14T08:03:54;22.73;;;20.83;;
8476;SDS011;4275;42.854;23.222;2023-06-14T08:06:21;23.80;;;22.20;;
8476;SDS011;4275;42.854;23.222;2023-06-14T08:08:48;22.80;;;20.90;;
8476;SDS011;4275;42.854;23.222;2023-06-14T08:11:15;21.00;;;19.30;;
8476;SDS011;4275;42.854;23.222;2023-06-14T08:13:42;22.45;;;20.55;;
8476;SDS011;4275;42.854;23.222;2023-06-14T08:16:09;21.30;;;19.60;;
8476;SDS011;4275;42.854;23.222;2023-06-14T08:18:38;22.05;;;20.35;;
8476;SDS011;4275;42.854;23.222;2023-06-14T08:21:04;24.15;;;22.05;;
8476;SDS011;4275;42.854;23.222;2023-06-14T08:23:32;23.70;;;21.75;;
8476;SDS011;4275;42.854;23.222;2023-06-14T08:25:59;26.50;;;24.20;;
8476;SDS011;4275;42.854;23.222;2023-06-14T08:28:29;26.40;;;24.00;;
8476;SDS011;4275;42.854;23.222;2023-06-14T08:30:56;26.35;;;23.95;;
8476;SDS011;4275;42.854;23.222;2023-06-14T08:33:23;26.50;;;24.10;;
8476;SDS011;4275;42.854;23.222;2023-06-14T08:35:51;25.40;;;23.10;;
8476;SDS011;4275;42.854;23.222;2023-06-14T08:38:18;26.13;;;23.83;;
8476;SDS011;4275;42.854;23.222;2023-06-14T08:40:45;24.92;;;22.73;;
8476;SDS011;4275;42.854;23.222;2023-06-14T08:43:16;24.83;;;22.63;;
8476;SDS011;4275;42.854;23.222;2023-06-14T08:45:43;23.10;;;21.10;;
8476;SDS011;4275;42.854;23.222;2023-06-14T08:48:14;25.38;;;22.88;;
8476;SDS011;4275;42.854;23.222;2023-06-14T08:50:42;24.83;;;22.52;;
8476;SDS011;4275;42.854;23.222;2023-06-14T08:53:13;23.63;;;21.52;;
8476;SDS011;4275;42.854;23.222;2023-06-14T08:55:44;25.02;;;22.83;;
8476;SDS011;4275;42.854;23.222;2023-06-14T08:58:13;25.90;;;23.30;;
8476;SDS011;4275;42.854;23.222;2023-06-14T09:00:40;26.17;;;23.38;;
8476;SDS011;4275;42.854;23.222;2023-06-14T09:03:08;23.63;;;21.10;;
8476;SDS011;4275;42.854;23.222;2023-06-14T09:05:38;24.38;;;21.73;;
8476;SDS011;4275;42.854;23.222;2023-06-14T09:08:05;25.55;;;22.75;;
8476;SDS011;4275;42.854;23.222;2023-06-14T09:10:34;25.88;;;23.17;;
8476;SDS011;4275;42.854;23.222;2023-06-14T09:13:02;27.60;;;24.60;;
8476;SDS011;4275;42.854;23.222;2023-06-14T09:15:29;24.65;;;21.00;;
8476;SDS011;4275;42.854;23.222;2023-06-14T09:17:56;23.23;;;20.73;;
8476;SDS011;4275;42.854;23.222;2023-06-14T09:20:24;25.17;;;22.23;;
8476;SDS011;4275;42.854;23.222;2023-06-14T09:22:51;26.00;;;22.13;;
8476;SDS011;4275;42.854;23.222;2023-06-14T09:25:20;28.02;;;24.15;;
8476;SDS011;4275;42.854;23.222;2023-06-14T09:27:50;27.65;;;23.55;;
8476;SDS011;4275;42.854;23.222;2023-06-14T09:30:19;27.08;;;24.13;;
8476;SDS011;4275;42.854;23.222;2023-06-14T09:32:47;28.05;;;25.05;;
8476;SDS011;4275;42.854;23.222;2023-06-14T09:35:14;26.98;;;24.08;;
8476;SDS011;4275;42.854;23.222;2023-06-14T09:37:44;28.23;;;25.23;;
8476;SDS011;4275;42.854;23.222;2023-06-14T09:40:11;28.95;;;25.85;;
8476;SDS011;4275;42.854;23.222;2023-06-14T09:42:38;28.48;;;25.05;;
8476;SDS011;4275;42.854;23.222;2023-06-14T09:45:08;28.63;;;24.73;;
8476;SDS011;4275;42.854;23.222;2023-06-14T09:47:38;30.88;;;27.48;;
8476;SDS011;4275;42.854;23.222;2023-06-14T09:50:06;30.27;;;27.17;;
8476;SDS011;4275;42.854;23.222;2023-06-14T09:52:33;30.58;;;27.27;;
8476;SDS011;4275;42.854;23.222;2023-06-14T09:55:00;28.48;;;24.02;;
8476;SDS011;4275;42.854;23.222;2023-06-14T09:57:40;29.58;;;24.75;;
8476;SDS011;4275;42.854;23.222;2023-06-14T10:00:11;30.88;;;26.13;;
8476;SDS011;4275;42.854;23.222;2023-06-14T10:02:41;30.25;;;25.25;;
8476;SDS011;4275;42.854;23.222;2023-06-14T10:05:15;28.83;;;23.95;;
8476;SDS011;4275;42.854;23.222;2023-06-14T10:07:48;27.90;;;23.40;;
8476;SDS011;4275;42.854;23.222;2023-06-14T10:10:19;27.02;;;22.85;;
8476;SDS011;4275;42.854;23.222;2023-06-14T10:12:55;29.10;;;24.60;;
8476;SDS011;4275;42.854;23.222;2023-06-14T10:15:27;27.73;;;23.10;;
8476;SDS011;4275;42.854;23.222;2023-06-14T10:18:00;28.55;;;25.02;;
8476;SDS011;4275;42.854;23.222;2023-06-14T10:20:33;28.17;;;24.98;;
8476;SDS011;4275;42.854;23.222;2023-06-14T10:23:09;29.20;;;25.67;;
8476;SDS011;4275;42.854;23.222;2023-06-14T10:25:41;28.02;;;24.00;;
8476;SDS011;4275;42.854;23.222;2023-06-14T10:28:16;27.88;;;23.85;;
8476;SDS011;4275;42.854;23.222;2023-06-14T10:31:03;29.70;;;26.23;;
8476;SDS011;4275;42.854;23.222;2023-06-14T10:33:34;26.95;;;23.35;;
8476;SDS011;4275;42.854;23.222;2023-06-14T10:36:08;28.65;;;25.63;;
8476;SDS011;4275;42.854;23.222;2023-06-14T10:38:59;29.88;;;26.77;;
8476;SDS011;4275;42.854;23.222;2023-06-14T10:41:28;30.00;;;26.48;;
8476;SDS011;4275;42.854;23.222;2023-06-14T10:47:10;29.70;;;26.48;;
8476;SDS011;4275;42.854;23.222;2023-06-14T10:49:49;29.13;;;25.70;;
8476;SDS011;4275;42.854;23.222;2023-06-14T10:52:20;31.00;;;27.30;;
8476;SDS011;4275;42.854;23.222;2023-06-14T10:55:04;30.95;;;27.25;;
8476;SDS011;4275;42.854;23.222;2023-06-14T10:57:35;29.17;;;25.67;;
8476;SDS011;4275;42.854;23.222;2023-06-14T11:00:03;31.45;;;27.23;;
8476;SDS011;4275;42.854;23.222;2023-06-14T11:02:48;31.00;;;26.90;;
8476;SDS011;4275;42.854;23.222;2023-06-14T11:05:48;29.90;;;26.02;;
8476;SDS011;4275;42.854;23.222;2023-06-14T11:11:14;31.02;;;26.40;;
8476;SDS011;4275;42.854;23.222;2023-06-14T11:13:42;31.00;;;25.70;;
8476;SDS011;4275;42.854;23.222;2023-06-14T11:16:12;28.13;;;23.42;;
8476;SDS011;4275;42.854;23.222;2023-06-14T11:18:41;30.23;;;25.80;;
8476;SDS011;4275;42.854;23.222;2023-06-14T11:21:10;28.67;;;24.63;;
8476;SDS011;4275;42.854;23.222;2023-06-14T11:23:37;29.55;;;23.95;;
8476;SDS011;4275;42.854;23.222;2023-06-14T11:26:04;31.08;;;25.80;;
8476;SDS011;4275;42.854;23.222;2023-06-14T11:28:38;30.50;;;25.35;;
8476;SDS011;4275;42.854;23.222;2023-06-14T11:31:05;30.95;;;25.50;;
8476;SDS011;4275;42.854;23.222;2023-06-14T11:33:33;30.95;;;25.95;;
8476;SDS011;4275;42.854;23.222;2023-06-14T11:36:03;30.52;;;25.27;;
8476;SDS011;4275;42.854;23.222;2023-06-14T11:38:34;31.40;;;26.05;;
8476;SDS011;4275;42.854;23.222;2023-06-14T11:41:02;29.42;;;23.17;;
8476;SDS011;4275;42.854;23.222;2023-06-14T11:43:29;30.83;;;24.95;;
8476;SDS011;4275;42.854;23.222;2023-06-14T11:45:58;30.80;;;25.73;;
8476;SDS011;4275;42.854;23.222;2023-06-14T11:48:35;29.90;;;25.05;;
8476;SDS011;4275;42.854;23.222;2023-06-14T11:51:04;31.10;;;25.33;;
8476;SDS011;4275;42.854;23.222;2023-06-14T11:53:31;31.13;;;26.00;;
8476;SDS011;4275;42.854;23.222;2023-06-14T11:55:59;29.05;;;24.67;;
8476;SDS011;4275;42.854;23.222;2023-06-14T11:58:28;29.60;;;24.05;;
8476;SDS011;4275;42.854;23.222;2023-06-14T12:00:56;29.77;;;23.80;;
8476;SDS011;4275;42.854;23.222;2023-06-14T12:03:23;31.73;;;26.77;;
8476;SDS011;4275;42.854;23.222;2023-06-14T12:06:01;30.83;;;26.50;;
8476;SDS011;4275;42.854;23.222;2023-06-14T12:08:34;30.25;;;24.98;;
8476;SDS011;4275;42.854;23.222;2023-06-14T12:11:05;28.73;;;23.20;;
8476;SDS011;4275;42.854;23.222;2023-06-14T12:13:34;30.95;;;25.10;;
8476;SDS011;4275;42.854;23.222;2023-06-14T12:16:06;30.38;;;24.55;;
8476;SDS011;4275;42.854;23.222;2023-06-14T12:18:34;31.13;;;25.38;;
8476;SDS011;4275;42.854;23.222;2023-06-14T12:21:04;30.77;;;25.27;;
8476;SDS011;4275;42.854;23.222;2023-06-14T12:23:44;31.17;;;24.50;;
8476;SDS011;4275;42.854;23.222;2023-06-14T12:26:12;31.83;;;25.35;;
8476;SDS011;4275;42.854;23.222;2023-06-14T12:28:40;31.02;;;24.73;;
8476;SDS011;4275;42.854;23.222;2023-06-14T12:31:08;31.00;;;24.30;;
8476;SDS011;4275;42.854;23.222;2023-06-14T12:33:36;31.25;;;24.85;;
8476;SDS011;4275;42.854;23.222;2023-06-14T12:36:06;30.42;;;24.58;;
8476;SDS011;4275;42.854;23.222;2023-06-14T12:38:34;30.00;;;24.10;;
8476;SDS011;4275;42.854;23.222;2023-06-14T12:41:01;31.38;;;25.63;;
8476;SDS011;4275;42.854;23.222;2023-06-14T12:43:29;30.73;;;24.88;;
8476;SDS011;4275;42.854;23.222;2023-06-14T12:45:56;30.35;;;24.15;;
8476;SDS011;4275;42.854;23.222;2023-06-14T12:48:23;32.72;;;26.23;;
8476;SDS011;4275;42.854;23.222;2023-06-14T12:50:50;32.60;;;25.70;;
8476;SDS011;4275;42.854;23.222;2023-06-14T12:53:18;30.52;;;24.55;;
8476;SDS011;4275;42.854;23.222;2023-06-14T12:55:46;31.08;;;24.77;;
8476;SDS011;4275;42.854;23.222;2023-06-14T12:58:13;31.33;;;25.15;;
8476;SDS011;4275;42.854;23.222;2023-06-14T13:00:42;31.55;;;25.15;;
8476;SDS011;4275;42.854;23.222;2023-06-14T13:03:10;31.67;;;26.02;;
8476;SDS011;4275;42.854;23.222;2023-06-14T13:05:37;32.20;;;26.45;;
8476;SDS011;4275;42.854;23.222;2023-06-14T13:08:06;31.55;;;25.63;;
8476;SDS011;4275;42.854;23.222;2023-06-14T13:10:35;31.33;;;25.42;;
8476;SDS011;4275;42.854;23.222;2023-06-14T13:13:03;32.47;;;26.63;;
8476;SDS011;4275;42.854;23.222;2023-06-14T13:15:30;32.85;;;27.23;;
8476;SDS011;4275;42.854;23.222;2023-06-14T13:17:57;32.17;;;27.27;;
8476;SDS011;4275;42.854;23.222;2023-06-14T13:20:24;32.08;;;26.95;;
8476;SDS011;4275;42.854;23.222;2023-06-14T13:22:51;30.95;;;25.63;;
8476;SDS011;4275;42.854;23.222;2023-06-14T13:25:18;32.03;;;28.10;;
8476;SDS011;4275;42.854;23.222;2023-06-14T13:27:47;31.40;;;27.25;;
8476;SDS011;4275;42.854;23.222;2023-06-14T13:30:14;30.88;;;26.90;;
8476;SDS011;4275;42.854;23.222;2023-06-14T13:32:42;29.52;;;25.15;;
8476;SDS011;4275;42.854;23.222;2023-06-14T13:35:09;29.88;;;25.67;;
8476;SDS011;4275;42.854;23.222;2023-06-14T13:37:36;30.02;;;25.98;;
8476;SDS011;4275;42.854;23.222;2023-06-14T13:40:03;30.33;;;26.75;;
8476;SDS011;4275;42.854;23.222;2023-06-14T13:42:31;30.60;;;27.15;;
8476;SDS011;4275;42.854;23.222;2023-06-14T13:45:00;30.63;;;25.90;;
8476;SDS011;4275;42.854;23.222;2023-06-14T13:47:27;29.90;;;25.45;;
8476;SDS011;4275;42.854;23.222;2023-06-14T13:49:55;30.10;;;26.42;;
8476;SDS011;4275;42.854;23.222;2023-06-14T13:52:22;26.77;;;23.55;;
8476;SDS011;4275;42.854;23.222;2023-06-14T13:54:49;23.75;;;21.25;;
8476;SDS011;4275;42.854;23.222;2023-06-14T13:57:16;23.90;;;21.40;;
8476;SDS011;4275;42.854;23.222;2023-06-14T13:59:44;21.55;;;19.45;;
8476;SDS011;4275;42.854;23.222;2023-06-14T14:02:12;21.88;;;19.77;;
8476;SDS011;4275;42.854;23.222;2023-06-14T14:04:40;22.90;;;20.60;;
8476;SDS011;4275;42.854;23.222;2023-06-14T14:07:07;23.77;;;21.27;;
8476;SDS011;4275;42.854;23.222;2023-06-14T14:09:34;25.15;;;22.55;;
8476;SDS011;4275;42.854;23.222;2023-06-14T14:12:02;23.70;;;21.20;;
8476;SDS011;4275;42.854;23.222;2023-06-14T14:14:30;24.33;;;21.83;;
8476;SDS011;4275;42.854;23.222;2023-06-14T14:16:58;23.02;;;20.83;;
8476;SDS011;4275;42.854;23.222;2023-06-14T14:19:27;20.65;;;18.85;;
8476;SDS011;4275;42.854;23.222;2023-06-14T14:21:54;19.67;;;17.98;;
8476;SDS011;4275;42.854;23.222;2023-06-14T14:24:21;19.13;;;17.52;;
8476;SDS011;4275;42.854;23.222;2023-06-14T14:26:48;16.50;;;15.30;;
8476;SDS011;4275;42.854;23.222;2023-06-14T14:29:17;16.35;;;15.25;;
8476;SDS011;4275;42.854;23.222;2023-06-14T14:31:44;16.67;;;15.57;;
8476;SDS011;4275;42.854;23.222;2023-06-14T14:34:11;17.10;;;15.90;;
8476;SDS011;4275;42.854;23.222;2023-06-14T14:36:40;17.27;;;16.08;;
8476;SDS011;4275;42.854;23.222;2023-06-14T14:39:07;16.90;;;15.80;;
8476;SDS011;4275;42.854;23.222;2023-06-14T14:41:34;18.00;;;16.63;;
8476;SDS011;4275;42.854;23.222;2023-06-14T14:44:03;18.73;;;17.23;;
8476;SDS011;4275;42.854;23.222;2023-06-14T14:46:30;18.65;;;17.25;;
8476;SDS011;4275;42.854;23.222;2023-06-14T14:48:58;18.08;;;16.77;;
8476;SDS011;4275;42.854;23.222;2023-06-14T14:51:25;18.33;;;16.92;;
8476;SDS011;4275;42.854;23.222;2023-06-14T14:53:53;20.40;;;18.60;;
8476;SDS011;4275;42.854;23.222;2023-06-14T14:56:21;22.20;;;20.20;;
8476;SDS011;4275;42.854;23.222;2023-06-14T14:58:49;21.30;;;19.40;;
8476;SDS011;4275;42.854;23.222;2023-06-14T15:01:16;20.40;;;18.60;;
8476;SDS011;4275;42.854;23.222;2023-06-14T15:03:44;20.85;;;18.95;;
8476;SDS011;4275;42.854;23.222;2023-06-14T15:06:11;21.60;;;19.65;;
8476;SDS011;4275;42.854;23.222;2023-06-14T15:08:37;20.63;;;18.90;;
8476;SDS011;4275;42.854;23.222;2023-06-14T15:11:06;20.77;;;18.88;;
8476;SDS011;4275;42.854;23.222;2023-06-14T15:13:33;21.35;;;19.35;;
8476;SDS011;4275;42.854;23.222;2023-06-14T15:16:00;23.45;;;21.15;;
8476;SDS011;4275;42.854;23.222;2023-06-14T15:18:27;22.92;;;20.83;;
8476;SDS011;4275;42.854;23.222;2023-06-14T15:20:54;22.38;;;20.27;;
8476;SDS011;4275;42.854;23.222;2023-06-14T15:23:21;21.73;;;19.73;;
8476;SDS011;4275;42.854;23.222;2023-06-14T15:25:49;20.00;;;18.30;;
8476;SDS011;4275;42.854;23.222;2023-06-14T15:28:18;18.98;;;17.48;;
8476;SDS011;4275;42.854;23.222;2023-06-14T15:30:49;18.10;;;16.70;;
8476;SDS011;4275;42.854;23.222;2023-06-14T15:33:16;17.00;;;15.80;;
8476;SDS011;4275;42.854;23.222;2023-06-14T15:35:43;16.40;;;15.30;;
8476;SDS011;4275;42.854;23.222;2023-06-14T15:38:10;16.98;;;15.88;;
8476;SDS011;4275;42.854;23.222;2023-06-14T15:40:37;16.63;;;15.52;;
8476;SDS011;4275;42.854;23.222;2023-06-14T15:43:04;17.92;;;16.63;;
8476;SDS011;4275;42.854;23.222;2023-06-14T15:45:33;18.00;;;16.70;;
8476;SDS011;4275;42.854;23.222;2023-06-14T15:48:02;18.33;;;17.00;;
8476;SDS011;4275;42.854;23.222;2023-06-14T15:50:29;18.58;;;17.17;;
8476;SDS011;4275;42.854;23.222;2023-06-14T15:52:57;18.48;;;17.08;;
8476;SDS011;4275;42.854;23.222;2023-06-14T15:55:24;18.17;;;16.77;;
8476;SDS011;4275;42.854;23.222;2023-06-14T15:57:52;18.20;;;16.80;;
8476;SDS011;4275;42.854;23.222;2023-06-14T16:00:19;18.50;;;17.00;;